Time;durP1;ratioP1;P1;durP2;ratioP2;P2;SDS_P1;SDS_P2;PMS_P1;PMS_P2;Temp;Humidity;BMP_temperature;BMP_pressure;BME280_temperature;BME280_humidity;BME280_pressure;Samples;Min_cycle;Max_cycle;Signal;HPM_P1;HPM_P2
2022/03/11 00:01:30;;;;;;;45.77;18.90;;;;;;;-1.37;64.71;95554.31;5103780;28;20646;-81
2022/03/11 00:03:55;;;;;;;51.00;19.30;;;;;;;-1.55;65.12;95527.38;5100457;28;20173;-81
2022/03/11 00:06:21;;;;;;;40.23;18.47;;;;;;;-1.23;64.72;95569.56;5103691;27;20230;-81
2022/03/11 00:08:46;;;;;;;37.97;17.80;;;;;;;-1.17;64.55;95576.81;5093394;28;20187;-81
2022/03/11 00:11:12;;;;;;;35.83;15.47;;;;;;;-1.15;64.19;95580.09;5093587;28;20272;-81
2022/03/11 00:13:37;;;;;;;31.53;15.30;;;;;;;-1.12;63.95;95580.81;5092818;28;20168;-81
2022/03/11 00:16:03;;;;;;;28.77;12.10;;;;;;;-1.16;64.33;95575.06;5093137;28;20173;-81
2022/03/11 00:18:29;;;;;;;22.63;10.87;;;;;;;-1.63;63.42;95501.34;5093149;28;20161;-81
2022/03/11 00:20:54;;;;;;;26.80;12.70;;;;;;;-1.30;63.92;95576.16;5093107;28;20162;-81
2022/03/11 00:23:20;;;;;;;25.40;13.60;;;;;;;-1.41;64.61;95560.69;5093107;28;20585;-81
2022/03/11 00:25:45;;;;;;;32.83;14.20;;;;;;;-1.37;64.63;95564.66;5091541;28;20213;-81
2022/03/11 00:28:11;;;;;;;28.37;12.70;;;;;;;-1.60;64.08;95524.34;5093217;28;20158;-81
2022/03/11 00:30:36;;;;;;;28.83;13.90;;;;;;;-1.43;64.30;95561.75;5093015;28;20292;-81
2022/03/11 00:33:02;;;;;;;27.03;13.40;;;;;;;-1.46;64.48;95564.56;5100565;28;20169;-81
2022/03/11 00:35:27;;;;;;;28.27;12.77;;;;;;;-1.89;64.88;95508.53;5099150;27;20259;-81
2022/03/11 00:37:53;;;;;;;30.27;13.77;;;;;;;-1.54;65.50;95562.56;5101404;28;20161;-81
2022/03/11 00:40:18;;;;;;;33.33;15.33;;;;;;;-1.68;65.64;95563.66;5106688;28;20253;-82
2022/03/11 00:42:44;;;;;;;31.43;13.83;;;;;;;-1.77;65.66;95545.47;5113030;28;20172;-82
2022/03/11 00:45:10;;;;;;;26.67;12.03;;;;;;;-1.81;66.03;95547.47;5113304;28;20614;-82
2022/03/11 00:47:35;;;;;;;31.30;13.90;;;;;;;-2.08;65.99;95513.50;5113035;28;20165;-82
2022/03/11 00:50:02;;;;;;;30.87;14.07;;;;;;;-2.06;67.21;95539.97;5112750;28;20208;-82
2022/03/11 00:52:28;;;;;;;33.60;15.23;;;;;;;-2.03;67.09;95561.22;5096372;28;20191;-82
2022/03/11 00:54:53;;;;;;;36.53;15.40;;;;;;;-2.05;67.96;95557.09;5106880;28;20250;-82
2022/03/11 00:57:19;;;;;;;34.77;15.37;;;;;;;-2.08;68.31;95539.28;5101837;28;20259;-82
2022/03/11 00:59:45;;;;;;;33.30;14.73;;;;;;;-2.09;68.48;95553.94;5095663;28;20231;-82
2022/03/11 01:02:11;;;;;;;35.40;15.33;;;;;;;-2.06;68.36;95553.69;5105219;28;20161;-82
2022/03/11 01:04:37;;;;;;;33.33;14.27;;;;;;;-2.33;68.56;95506.78;5102190;28;20588;-82
2022/03/11 01:07:03;;;;;;;33.23;14.73;;;;;;;-2.32;68.00;95496.38;5104827;27;20183;-81
2022/03/11 01:09:28;;;;;;;30.70;12.90;;;;;;;-2.10;67.81;95531.66;5096734;28;20250;-81
2022/03/11 01:11:54;;;;;;;26.43;13.10;;;;;;;-2.35;66.99;95488.91;5092527;28;20189;-81
2022/03/11 01:14:19;;;;;;;30.27;13.10;;;;;;;-2.31;67.03;95497.19;5092248;28;20603;-81
2022/03/11 01:16:45;;;;;;;28.63;11.97;;;;;;;-1.93;67.21;95563.91;5092813;28;20236;-82
2022/03/11 01:19:10;;;;;;;28.53;14.27;;;;;;;-1.95;68.25;95566.59;5090920;28;20199;-82
2022/03/11 01:21:36;;;;;;;30.03;13.53;;;;;;;-2.16;67.91;95534.69;5092322;28;20193;-82
2022/03/11 01:24:01;;;;;;;28.90;13.00;;;;;;;-2.01;67.63;95564.50;5092359;28;20174;-82
2022/03/11 01:26:27;;;;;;;30.40;12.90;;;;;;;-2.01;67.77;95564.50;5091298;28;20221;-81
2022/03/11 01:28:53;;;;;;;24.93;11.43;;;;;;;-2.09;68.41;95556.53;5092662;28;20173;-82
2022/03/11 01:31:18;;;;;;;26.33;11.43;;;;;;;-2.13;67.77;95562.84;5094766;28;20682;-82
2022/03/11 01:33:45;;;;;;;25.07;11.27;;;;;;;-2.13;67.96;95560.25;5101710;28;20177;-81
2022/03/11 01:36:11;;;;;;;36.83;13.10;;;;;;;-2.25;68.28;95537.19;5097996;28;20651;-81
2022/03/11 01:38:38;;;;;;;30.67;11.80;;;;;;;-2.05;68.34;95560.50;5098097;28;20173;-81
2022/03/11 01:41:04;;;;;;;26.47;11.03;;;;;;;-2.04;68.16;95556.97;5108253;28;20237;-81
2022/03/11 01:43:30;;;;;;;26.93;11.27;;;;;;;-2.20;67.94;95524.75;5111087;28;20645;-81
2022/03/11 01:45:56;;;;;;;26.40;12.67;;;;;;;-2.10;68.24;95542.00;5099805;28;20251;-81
2022/03/11 01:48:22;;;;;;;27.47;12.50;;;;;;;-2.14;67.66;95540.56;5100582;28;20307;-82
2022/03/11 01:50:51;;;;;;;32.43;14.17;;;;;;;-2.25;68.51;95530.25;5098680;28;20218;-81
2022/03/11 01:53:17;;;;;;;30.20;13.73;;;;;;;-2.29;68.88;95531.41;5096957;28;20173;-81
2022/03/11 01:55:42;;;;;;;27.27;12.93;;;;;;;-2.14;68.31;95552.63;5092170;28;20166;-81
2022/03/11 01:58:08;;;;;;;39.93;14.27;;;;;;;-2.27;67.80;95539.88;5092405;28;20177;-81
2022/03/11 02:00:55;;;;;;;39.13;13.77;;;;;;;-2.19;68.49;95549.59;5091779;28;20166;-81
2022/03/11 02:03:20;;;;;;;29.93;14.60;;;;;;;-2.46;68.35;95524.97;5097611;28;20173;-81
2022/03/11 02:05:46;;;;;;;32.10;14.03;;;;;;;-2.22;68.09;95547.25;5104057;28;20176;-81
2022/03/11 02:08:11;;;;;;;38.00;14.17;;;;;;;-2.40;68.48;95523.66;5100470;28;20287;-81
2022/03/11 02:10:37;;;;;;;40.90;15.10;;;;;;;-2.38;68.36;95532.94;5104360;28;20590;-84
2022/03/11 02:13:07;;;;;;;32.03;15.07;;;;;;;-2.33;68.15;95528.25;5099604;28;20165;-84
2022/03/11 02:15:33;;;;;;;39.27;14.27;;;;;;;-2.19;68.29;95558.16;5104473;28;20211;-83
2022/03/11 02:17:58;;;;;;;33.73;13.87;;;;;;;-2.19;67.85;95554.75;5112091;28;20253;-82
2022/03/11 02:20:24;;;;;;;33.03;13.97;;;;;;;-2.45;68.20;95521.44;5111889;28;20707;-81
2022/03/11 02:22:51;;;;;;;40.03;15.23;;;;;;;-2.34;68.19;95541.28;5112313;28;20569;-82
2022/03/11 02:25:17;;;;;;;37.90;15.90;;;;;;;-2.65;68.32;95514.38;5111825;28;20176;-81
2022/03/11 02:27:43;;;;;;;31.80;15.60;;;;;;;-2.50;68.99;95553.63;5111621;28;20221;-82
2022/03/11 02:30:21;;;;;;;34.17;15.70;;;;;;;-2.89;69.46;95495.59;5112063;28;20162;-82
2022/03/11 02:32:48;;;;;;;30.17;14.27;;;;;;;-2.55;69.75;95560.91;5111810;28;20736;-82
2022/03/11 02:35:15;;;;;;;35.83;14.67;;;;;;;-2.67;70.13;95555.72;5111833;28;20517;-82
2022/03/11 02:37:41;;;;;;;27.23;13.60;;;;;;;-2.75;70.10;95560.59;5114180;28;20161;-82
2022/03/11 02:40:07;;;;;;;32.13;13.70;;;;;;;-3.11;69.87;95493.78;5115432;28;20240;-82
2022/03/11 02:42:33;;;;;;;34.23;14.87;;;;;;;-2.71;70.26;95562.03;5115972;28;20172;-82
2022/03/11 02:45:00;;;;;;;32.03;14.40;;;;;;;-2.71;69.91;95558.63;5115371;28;20563;-82
2022/03/11 02:47:26;;;;;;;35.23;14.13;;;;;;;-2.76;70.43;95563.28;5115555;28;20154;-82
2022/03/11 02:49:52;;;;;;;36.37;14.30;;;;;;;-2.89;70.68;95565.13;5115235;27;20161;-82
2022/03/11 02:52:17;;;;;;;29.57;14.33;;;;;;;-2.91;70.32;95570.38;5115638;28;20230;-82
2022/03/11 02:54:43;;;;;;;25.60;11.37;;;;;;;-3.35;69.85;95514.38;5113943;28;20165;-82
2022/03/11 02:57:08;;;;;;;19.17;10.03;;;;;;;-3.39;70.04;95538.72;5115380;28;20179;-82
2022/03/11 02:59:34;;;;;;;19.17;10.17;;;;;;;-3.40;70.52;95559.41;5109566;28;20564;-82
2022/03/11 03:01:59;;;;;;;22.17;9.20;;;;;;;-3.76;71.14;95537.09;5106018;28;20658;-81
2022/03/11 03:04:25;;;;;;;15.57;8.73;;;;;;;-3.81;71.21;95525.38;5105460;28;20166;-82
2022/03/11 03:06:50;;;;;;;21.37;10.97;;;;;;;-3.85;70.88;95523.94;5106998;28;20169;-82
2022/03/11 03:09:15;;;;;;;19.70;10.20;;;;;;;-3.89;71.26;95519.13;5114294;28;20678;-82
2022/03/11 03:11:41;;;;;;;21.03;10.93;;;;;;;-3.62;71.40;95563.47;5114930;28;20197;-82
2022/03/11 03:14:06;;;;;;;28.90;12.00;;;;;;;-3.59;71.44;95552.16;5115314;28;20161;-82
2022/03/11 03:16:32;;;;;;;25.93;11.07;;;;;;;-3.92;71.09;95489.31;5114671;28;20172;-82
2022/03/11 03:18:57;;;;;;;23.77;11.40;;;;;;;-3.54;71.46;95550.88;5114821;28;20176;-81
2022/03/11 03:21:25;;;;;;;23.70;12.13;;;;;;;-3.29;71.50;95580.06;5114626;28;20181;-82
2022/03/11 03:23:52;;;;;;;23.27;11.03;;;;;;;-3.55;71.21;95535.59;5114609;28;20232;-82
2022/03/11 03:26:18;;;;;;;27.40;11.70;;;;;;;-3.27;70.64;95562.72;5114433;28;20216;-82
2022/03/11 03:28:44;;;;;;;23.73;11.33;;;;;;;-3.31;70.48;95563.91;5114467;28;20666;-82
2022/03/11 03:31:09;;;;;;;20.30;10.30;;;;;;;-3.43;70.61;95558.69;5113086;28;20193;-82
2022/03/11 03:33:35;;;;;;;24.83;11.53;;;;;;;-3.31;70.87;95576.75;5114942;28;20596;-82
2022/03/11 03:36:00;;;;;;;31.20;13.70;;;;;;;-3.66;70.67;95530.38;5114703;28;20613;-82
2022/03/11 03:38:26;;;;;;;25.03;12.77;;;;;;;-3.61;71.41;95530.84;5114634;28;20539;-82
2022/03/11 03:40:51;;;;;;;73.33;20.90;;;;;;;-3.29;71.21;95588.59;5114258;28;20161;-82
2022/03/11 03:43:18;;;;;;;79.30;20.30;;;;;;;-3.33;71.36;95574.28;5110974;28;20173;-82
2022/03/11 03:45:43;;;;;;;69.07;22.10;;;;;;;-3.55;70.88;95540.75;5103085;28;20161;-81
2022/03/11 03:48:09;;;;;;;55.03;18.70;;;;;;;-3.39;71.04;95579.06;5105354;28;20180;-82
2022/03/11 03:50:34;;;;;;;61.10;18.93;;;;;;;-3.78;71.42;95514.03;5102184;28;20217;-82
2022/03/11 03:53:00;;;;;;;64.87;19.13;;;;;;;-3.74;71.90;95517.25;5110571;28;20188;-82
2022/03/11 03:55:25;;;;;;;67.43;19.20;;;;;;;-3.85;71.09;95500.81;5112815;28;20224;-82
2022/03/11 03:57:50;;;;;;;48.73;19.20;;;;;;;-3.42;71.31;95562.91;5114416;28;20231;-82
2022/03/11 04:00:16;;;;;;;51.87;19.40;;;;;;;-3.34;71.10;95584.69;5112575;28;20169;-82
2022/03/11 04:02:50;;;;;;;38.60;14.57;;;;;;;-3.55;71.29;95569.03;5108774;28;21269;-82
2022/03/11 04:05:17;;;;;;;30.03;13.13;;;;;;;-3.67;71.22;95541.59;5105804;28;20162;-82
2022/03/11 04:07:44;;;;;;;26.57;13.53;;;;;;;-3.72;70.98;95549.63;5103270;28;20209;-81
2022/03/11 04:10:10;;;;;;;23.90;12.80;;;;;;;-3.52;71.03;95594.53;5107379;28;20643;-82
2022/03/11 04:12:36;;;;;;;35.83;14.70;;;;;;;-3.71;71.42;95576.97;5106193;28;20177;-82
2022/03/11 04:15:02;;;;;;;32.30;15.50;;;;;;;-3.70;71.39;95568.34;5101398;28;20238;-82
2022/03/11 04:17:27;;;;;;;35.40;15.83;;;;;;;-4.09;70.88;95517.94;5108578;28;20598;-82
2022/03/11 04:19:53;;;;;;;35.63;15.83;;;;;;;-3.51;70.78;95615.00;5097965;28;20661;-82
2022/03/11 04:22:18;;;;;;;46.23;18.60;;;;;;;-3.59;70.88;95595.88;5093744;28;20169;-82
2022/03/11 04:24:44;;;;;;;46.03;17.40;;;;;;;-3.83;71.11;95563.25;5091798;28;20177;-82
2022/03/11 04:27:09;;;;;;;40.77;19.50;;;;;;;-3.60;71.13;95602.78;5096803;28;20217;-82
2022/03/11 04:29:36;;;;;;;45.47;21.37;;;;;;;-3.86;71.27;95565.19;5101314;28;20629;-82
2022/03/11 04:32:03;;;;;;;51.93;22.43;;;;;;;-4.16;71.69;95521.03;5101430;28;20185;-82
2022/03/11 04:34:28;;;;;;;51.40;22.60;;;;;;;-3.87;71.73;95563.53;5101059;28;20170;-82
2022/03/11 04:36:56;;;;;;;62.23;26.10;;;;;;;-3.62;72.08;95611.53;5099945;28;20575;-82
2022/03/11 04:39:23;;;;;;;56.53;26.70;;;;;;;-3.56;71.85;95614.50;5101742;28;20634;-82
2022/03/11 04:41:49;;;;;;;59.97;26.37;;;;;;;-3.83;71.82;95567.56;5097114;28;20176;-82
2022/03/11 04:44:14;;;;;;;64.07;27.43;;;;;;;-3.82;71.40;95561.50;5103080;28;20173;-81
2022/03/11 04:46:40;;;;;;;51.57;24.23;;;;;;;-3.75;72.16;95610.75;5102998;28;20213;-82
2022/03/11 04:49:05;;;;;;;35.67;16.57;;;;;;;-3.78;71.95;95616.06;5101486;28;20161;-82
2022/03/11 04:51:31;;;;;;;36.50;15.87;;;;;;;-4.21;71.48;95550.44;5112764;28;20623;-82
2022/03/11 04:53:58;;;;;;;38.80;17.70;;;;;;;-3.83;70.93;95611.28;5113181;28;20611;-81
2022/03/11 04:56:24;;;;;;;35.10;17.03;;;;;;;-3.77;71.16;95621.13;5111543;28;20169;-82
2022/03/11 04:58:50;;;;;;;35.17;18.17;;;;;;;-3.77;70.86;95626.25;5112834;28;20238;-82
2022/03/11 05:01:15;;;;;;;20.67;11.70;;;;;;;-3.91;70.99;95596.38;5111388;28;20252;-82
2022/03/11 05:03:41;;;;;;;22.20;10.00;;;;;;;-4.11;70.57;95565.22;5112708;28;20597;-82
2022/03/11 05:06:06;;;;;;;29.70;12.60;;;;;;;-3.82;70.85;95618.06;5112673;28;20181;-82
2022/03/11 05:08:32;;;;;;;30.43;13.23;;;;;;;-3.69;71.00;95628.31;5112958;28;20157;-81
2022/03/11 05:10:57;;;;;;;24.27;13.40;;;;;;;-3.73;71.10;95611.47;5105694;28;20181;-81
2022/03/11 05:13:23;;;;;;;26.67;13.30;;;;;;;-3.59;70.82;95631.91;5101773;28;20177;-81
2022/03/11 05:15:48;;;;;;;30.30;15.77;;;;;;;-4.02;70.22;95547.44;5098757;28;20177;-81
2022/03/11 05:18:14;;;;;;;32.23;16.03;;;;;;;-3.54;70.79;95637.53;5100233;28;20203;-82
2022/03/11 05:20:39;;;;;;;31.13;15.90;;;;;;;-3.47;70.75;95642.19;5100403;28;20168;-82
2022/03/11 05:23:05;;;;;;;40.13;17.20;;;;;;;-3.81;70.62;95563.97;5103049;28;20191;-81
2022/03/11 05:25:31;;;;;;;36.97;18.10;;;;;;;-3.32;70.68;95642.84;5112366;28;20176;-82
2022/03/11 05:27:56;;;;;;;45.17;17.83;;;;;;;-3.50;70.68;95603.78;5112299;28;20224;-81
2022/03/11 05:30:22;;;;;;;35.73;18.13;;;;;;;-3.52;70.21;95597.91;5112664;28;20169;-82
2022/03/11 05:32:47;;;;;;;31.53;17.27;;;;;;;-3.44;70.16;95593.06;5112842;28;20214;-82
2022/03/11 05:35:16;;;;;;;42.67;19.90;;;;;;;-3.39;70.06;95602.22;5112180;28;20251;-82
2022/03/11 05:37:42;;;;;;;57.83;24.50;;;;;;;-3.11;69.72;95651.63;5112365;28;20231;-81
2022/03/11 05:40:08;;;;;;;48.97;22.13;;;;;;;-3.22;70.12;95617.28;5112243;28;20240;-82
2022/03/11 05:42:34;;;;;;;60.17;24.50;;;;;;;-2.98;70.08;95661.91;5112226;28;20169;-81
2022/03/11 05:44:59;;;;;;;94.33;40.93;;;;;;;-3.38;70.47;95591.00;5112303;28;20168;-82
2022/03/11 05:47:25;;;;;;;128.30;57.83;;;;;;;-3.29;70.14;95598.06;5112310;28;20654;-82
2022/03/11 05:49:51;;;;;;;102.03;50.03;;;;;;;-2.91;70.90;95655.38;5112892;28;20162;-82
2022/03/11 05:52:16;;;;;;;78.63;38.83;;;;;;;-2.86;71.25;95663.63;5112455;28;20676;-82
2022/03/11 05:54:42;;;;;;;67.97;31.43;;;;;;;-2.83;69.71;95654.81;5112277;28;20882;-81
2022/03/11 05:57:07;;;;;;;70.80;28.87;;;;;;;-2.88;69.88;95632.00;5112491;28;20181;-82
2022/03/11 05:59:33;;;;;;;62.50;26.43;;;;;;;-2.89;70.06;95620.03;5110949;28;20177;-82
2022/03/11 06:01:59;;;;;;;50.83;22.10;;;;;;;-2.61;69.81;95646.38;5101196;28;20542;-82
2022/03/11 06:04:25;;;;;;;45.07;21.27;;;;;;;-2.59;69.33;95641.94;5101399;28;20727;-82
2022/03/11 06:06:50;;;;;;;36.13;16.80;;;;;;;-2.30;69.44;95658.66;5100776;28;20196;-82
2022/03/11 06:09:16;;;;;;;31.10;14.60;;;;;;;-2.17;68.25;95668.91;5104664;28;20268;-82
2022/03/11 06:11:42;;;;;;;40.90;17.57;;;;;;;-2.11;67.42;95658.97;5113161;28;20677;-82
2022/03/11 06:14:07;;;;;;;39.00;20.77;;;;;;;-1.96;68.04;95660.38;5114745;28;20166;-81
2022/03/11 06:16:34;;;;;;;33.03;16.30;;;;;;;-2.00;66.67;95656.41;5115999;28;20161;-82
2022/03/11 06:19:00;;;;;;;33.70;15.23;;;;;;;-2.34;67.64;95645.19;5116036;28;20176;-81
2022/03/11 06:21:25;;;;;;;43.33;17.00;;;;;;;-2.15;67.67;95667.03;5115756;28;20240;-81
2022/03/11 06:23:51;;;;;;;44.53;16.27;;;;;;;-2.39;67.08;95618.09;5115841;28;20211;-81
2022/03/11 06:26:17;;;;;;;34.70;16.00;;;;;;;-1.81;66.42;95685.97;5115611;28;20248;-81
2022/03/11 06:28:43;;;;;;;37.90;17.20;;;;;;;-1.95;66.67;95632.84;5115765;28;20192;-81
2022/03/11 06:31:09;;;;;;;36.43;15.00;;;;;;;-1.38;66.19;95699.84;5115591;28;20197;-81
2022/03/11 06:33:34;;;;;;;38.63;15.03;;;;;;;-1.29;65.08;95664.75;5115617;28;20157;-81
2022/03/11 06:36:00;;;;;;;32.70;14.70;;;;;;;-1.04;64.10;95666.28;5112324;28;20192;-81
2022/03/11 06:38:25;;;;;;;26.00;12.93;;;;;;;-0.55;62.25;95700.22;5115441;28;20165;-82
2022/03/11 06:40:51;;;;;;;24.10;10.33;;;;;;;-0.61;60.18;95643.84;5106948;28;20662;-82
2022/03/11 06:43:17;;;;;;;23.97;12.57;;;;;;;0.60;58.46;95704.56;5105887;28;20552;-82
2022/03/11 06:45:43;;;;;;;39.27;15.87;;;;;;;1.18;55.02;95648.56;5102827;28;20173;-81
2022/03/11 06:48:08;;;;;;;32.67;15.47;;;;;;;4.02;51.31;95679.22;5105267;28;20185;-84
2022/03/11 06:50:34;;;;;;;24.07;13.30;;;;;;;6.88;42.85;95677.31;5104227;28;20188;-83
2022/03/11 06:52:59;;;;;;;29.70;14.30;;;;;;;9.20;37.78;95674.22;5104533;28;20638;-82
2022/03/11 06:55:25;;;;;;;27.80;13.57;;;;;;;9.30;34.65;95705.50;5108977;28;20653;-82
2022/03/11 06:57:50;;;;;;;25.97;12.27;;;;;;;8.15;34.80;95672.56;5101847;28;20178;-83
2022/03/11 07:00:16;;;;;;;23.37;11.90;;;;;;;8.96;35.86;95703.38;5104744;28;20261;-84
2022/03/11 07:02:42;;;;;;;20.57;10.43;;;;;;;7.40;34.98;95675.00;5104346;28;20270;-82
2022/03/11 07:05:09;;;;;;;21.73;11.60;;;;;;;7.95;36.21;95667.00;5108558;28;20214;-84
2022/03/11 07:07:35;;;;;;;22.07;11.57;;;;;;;9.17;36.03;95706.09;5105917;28;20177;-82
2022/03/11 07:10:07;;;;;;;10.23;5.83;;;;;;;9.46;33.17;95669.31;5109672;28;20175;-85
2022/03/11 07:12:33;;;;;;;10.10;5.10;;;;;;;9.37;32.38;95709.84;5099385;28;20205;-84
2022/03/11 07:15:02;;;;;;;9.27;5.07;;;;;;;8.84;32.15;95710.06;5106765;28;20275;-83
2022/03/11 07:17:28;;;;;;;7.17;5.23;;;;;;;7.74;33.53;95675.47;5102565;28;20192;-85
2022/03/11 07:19:54;;;;;;;7.30;4.67;;;;;;;6.80;34.19;95668.50;5103928;28;20630;-84
2022/03/11 07:22:20;;;;;;;8.70;4.77;;;;;;;6.49;34.99;95712.03;5104642;28;20170;-83
2022/03/11 07:24:45;;;;;;;6.87;4.20;;;;;;;5.83;35.80;95685.97;5105353;28;20171;-84
2022/03/11 07:27:12;;;;;;;5.90;4.00;;;;;;;5.40;37.93;95674.78;5109163;28;20649;-84
2022/03/11 07:29:37;;;;;;;10.07;4.67;;;;;;;6.02;38.41;95696.19;5108314;28;20184;-83
2022/03/11 07:32:03;;;;;;;7.17;4.77;;;;;;;6.89;36.05;95711.16;5101396;28;20193;-84
2022/03/11 07:34:29;;;;;;;6.13;4.20;;;;;;;7.83;34.50;95699.84;5099106;28;20181;-84
2022/03/11 07:36:54;;;;;;;7.07;4.43;;;;;;;8.43;33.83;95686.00;5097906;28;20185;-84
2022/03/11 07:39:20;;;;;;;7.43;4.30;;;;;;;9.31;32.94;95707.13;5103802;28;20208;-83
2022/03/11 07:41:46;;;;;;;5.77;3.93;;;;;;;9.46;30.81;95676.38;5100625;28;20181;-84
2022/03/11 07:44:13;;;;;;;7.00;4.23;;;;;;;9.33;29.59;95705.13;5106513;28;20326;-83
2022/03/11 07:46:38;;;;;;;6.43;4.57;;;;;;;8.40;32.36;95702.09;5097856;28;20174;-83
2022/03/11 07:49:04;;;;;;;7.87;5.13;;;;;;;8.19;32.37;95707.97;5106360;28;20179;-82
2022/03/11 07:51:30;;;;;;;5.70;4.20;;;;;;;8.01;32.81;95679.41;5100172;28;20211;-82
2022/03/11 07:53:57;;;;;;;6.73;4.50;;;;;;;8.25;32.29;95709.88;5104771;28;20266;-81
2022/03/11 07:56:24;;;;;;;8.67;5.70;;;;;;;7.35;32.51;95700.91;5103091;28;20178;-82
2022/03/11 07:58:49;;;;;;;8.57;5.30;;;;;;;5.86;35.25;95701.34;5099605;28;21981;-82
2022/03/11 08:01:15;;;;;;;7.30;5.03;;;;;;;6.12;36.53;95691.63;5104711;28;20162;-83
2022/03/11 08:03:41;;;;;;;10.40;5.60;;;;;;;6.51;36.30;95675.25;5095327;28;20189;-84
2022/03/11 08:06:11;;;;;;;8.13;5.53;;;;;;;7.10;36.32;95682.63;5101520;28;20168;-83
2022/03/11 08:08:37;;;;;;;11.20;5.67;;;;;;;7.00;33.87;95704.78;5099261;28;20228;-84
2022/03/11 08:11:06;;;;;;;7.53;4.83;;;;;;;7.27;35.50;95708.75;5101781;28;20201;-85
2022/03/11 08:13:33;;;;;;;7.63;5.10;;;;;;;7.20;34.21;95662.31;5104034;28;20224;-83
2022/03/11 08:16:00;;;;;;;8.57;4.33;;;;;;;7.19;33.14;95713.03;5108840;28;20241;-83
2022/03/11 08:18:26;;;;;;;8.83;5.33;;;;;;;6.65;33.63;95698.13;5104856;28;20172;-83
2022/03/11 08:20:51;;;;;;;7.50;4.80;;;;;;;6.29;34.53;95700.28;5096208;28;20215;-82
2022/03/11 08:23:17;;;;;;;9.53;5.20;;;;;;;5.65;35.38;95697.38;5102514;28;20553;-81
2022/03/11 08:25:42;;;;;;;9.57;5.63;;;;;;;4.27;36.38;95680.22;5102087;28;20250;-83
2022/03/11 08:28:13;;;;;;;8.13;5.10;;;;;;;4.28;39.19;95697.50;5098447;28;20165;-83
2022/03/11 08:30:40;;;;;;;9.17;5.40;;;;;;;4.14;37.85;95654.56;5100448;28;20265;-82
2022/03/11 08:33:05;;;;;;;7.27;5.00;;;;;;;4.69;38.44;95663.88;5101769;28;20191;-82
2022/03/11 08:35:31;;;;;;;8.50;5.03;;;;;;;4.81;37.26;95707.81;5100119;28;20177;-84
2022/03/11 08:37:57;;;;;;;6.83;4.83;;;;;;;4.48;37.84;95688.53;5104438;28;20686;-83
2022/03/11 08:40:24;;;;;;;6.93;5.00;;;;;;;4.73;37.48;95706.94;5102700;28;20181;-82
2022/03/11 08:42:50;;;;;;;8.57;5.37;;;;;;;4.57;37.61;95697.22;5099895;28;20166;-82
2022/03/11 08:45:20;;;;;;;8.93;5.20;;;;;;;4.02;38.23;95694.03;5104245;28;20633;-84
2022/03/11 08:47:45;;;;;;;9.70;5.37;;;;;;;3.23;39.77;95634.84;5101914;28;20169;-83
2022/03/11 08:50:11;;;;;;;10.13;5.43;;;;;;;3.58;39.16;95651.47;5107040;28;20177;-87
2022/03/11 08:52:36;;;;;;;17.93;5.13;;;;;;;3.88;40.95;95682.34;5103766;28;20250;-84
2022/03/11 08:55:03;;;;;;;11.23;5.33;;;;;;;4.31;40.64;95636.44;5105826;28;20184;-84
2022/03/11 08:57:29;;;;;;;8.13;4.93;;;;;;;4.55;38.54;95611.34;5113387;28;20260;-82
2022/03/11 08:59:54;;;;;;;7.77;5.03;;;;;;;4.57;37.44;95633.84;5114518;28;20574;-82
2022/03/11 09:02:22;;;;;;;17.10;9.00;;;;;;;4.29;38.99;95685.28;5110964;28;20165;-82
2022/03/11 09:04:48;;;;;;;11.50;6.33;;;;;;;4.89;41.45;95684.38;5117317;28;20181;-82
2022/03/11 09:07:13;;;;;;;7.97;5.07;;;;;;;4.82;37.46;95625.16;5117531;28;20178;-82
2022/03/11 09:09:39;;;;;;;8.53;5.03;;;;;;;5.18;37.46;95644.06;5125969;28;20181;-84
2022/03/11 09:12:05;;;;;;;9.33;5.53;;;;;;;5.38;36.33;95655.84;5121927;28;20197;-86
2022/03/11 09:14:31;;;;;;;6.37;4.60;;;;;;;4.83;36.58;95692.81;5122539;28;20173;-88
2022/03/11 09:16:58;;;;;;;7.77;4.77;;;;;;;4.01;36.47;95687.16;5123788;28;20224;-88
2022/03/11 09:19:23;;;;;;;7.30;4.50;;;;;;;3.09;37.94;95635.34;5122620;28;20191;-86
2022/03/11 09:21:49;;;;;;;9.00;5.57;;;;;;;2.97;39.65;95634.72;5122437;28;20177;-86
2022/03/11 09:24:15;;;;;;;7.53;4.50;;;;;;;2.56;40.65;95655.97;5105437;28;20180;-88
2022/03/11 09:26:41;;;;;;;10.30;5.37;;;;;;;2.89;41.40;95645.03;5100314;28;20624;-88
2022/03/11 09:29:06;;;;;;;6.83;4.67;;;;;;;3.13;39.32;95643.66;5106673;28;20180;-88
2022/03/11 09:31:34;;;;;;;8.67;5.00;;;;;;;3.52;38.63;95678.09;5099245;28;20224;-88
2022/03/11 09:34:00;;;;;;;8.03;4.93;;;;;;;3.23;39.71;95637.47;5093424;28;20597;-88
2022/03/11 09:36:26;;;;;;;7.97;5.43;;;;;;;3.24;38.41;95652.09;5102358;28;20604;-88
2022/03/11 09:38:52;;;;;;;12.70;5.40;;;;;;;3.23;39.33;95670.44;5105606;28;20177;-88
2022/03/11 09:41:19;;;;;;;6.40;4.20;;;;;;;3.20;39.90;95684.56;5099104;28;20231;-88
2022/03/11 09:43:47;;;;;;;7.57;4.93;;;;;;;2.97;40.98;95633.91;5092285;28;20188;-88
2022/03/11 09:46:14;;;;;;;7.60;5.50;;;;;;;3.35;39.07;95687.50;5094481;28;20188;-88
2022/03/11 09:48:42;;;;;;;10.27;5.70;;;;;;;3.35;39.72;95693.53;5106113;28;20535;-88
2022/03/11 09:51:10;;;;;;;9.63;6.13;;;;;;;3.36;40.97;95691.75;5108067;28;20294;-88
2022/03/11 09:53:36;;;;;;;7.37;5.20;;;;;;;2.76;41.46;95574.38;5103265;28;20190;-88
2022/03/11 09:56:01;;;;;;;9.97;6.23;;;;;;;3.55;41.36;95690.78;5108264;28;20177;-88
2022/03/11 09:58:27;;;;;;;11.90;6.40;;;;;;;3.30;39.25;95648.91;5101490;28;20677;-89
2022/03/11 10:00:52;;;;;;;13.23;6.73;;;;;;;3.09;39.94;95614.56;5091903;28;20681;-88
2022/03/11 10:03:18;;;;;;;10.67;6.60;;;;;;;3.43;39.08;95682.38;5105523;28;20171;-88
2022/03/11 10:05:47;;;;;;;13.70;7.63;;;;;;;3.14;41.26;95642.72;5097112;28;20185;-88
2022/03/11 10:08:13;;;;;;;10.23;6.27;;;;;;;3.18;41.93;95664.88;5102623;28;20182;-88
2022/03/11 10:10:39;;;;;;;13.53;6.87;;;;;;;2.44;42.33;95673.50;5098842;28;20230;-88
2022/03/11 10:13:07;;;;;;;10.53;6.97;;;;;;;1.39;42.63;95622.50;5097896;28;20569;-89
2022/03/11 10:15:33;;;;;;;12.60;7.33;;;;;;;0.77;45.28;95634.00;5104784;28;20205;-88
2022/03/11 10:18:02;;;;;;;9.30;5.77;;;;;;;0.55;44.63;95619.47;5101662;28;20723;-88
2022/03/11 10:20:29;;;;;;;11.77;5.73;;;;;;;0.77;45.17;95600.34;5098897;28;20671;-87
2022/03/11 10:22:57;;;;;;;12.43;6.93;;;;;;;1.14;45.72;95601.34;5103668;28;20176;-88
2022/03/11 10:25:25;;;;;;;11.57;5.60;;;;;;;1.68;44.46;95623.34;5104652;27;20186;-89
2022/03/11 10:28:08;;;;;;;9.93;5.20;;;;;;;1.96;44.70;95641.63;5102002;28;20828;-88
2022/03/11 10:30:39;;;;;;;18.67;9.33;;;;;;;1.50;43.89;95632.75;5103035;28;20173;-88
2022/03/11 10:33:07;;;;;;;20.83;10.10;;;;;;;1.37;47.05;95642.59;5102281;28;20686;-87
2022/03/11 10:35:42;;;;;;;9.27;6.00;;;;;;;0.72;45.47;95631.81;5102635;28;20182;-87
2022/03/11 10:38:14;;;;;;;12.90;7.07;;;;;;;0.59;47.07;95672.66;5106025;28;20566;-89
2022/03/11 10:40:56;;;;;;;9.50;5.50;;;;;;;0.26;46.84;95628.91;5100220;28;20181;-87
2022/03/11 10:43:25;;;;;;;9.93;5.60;;;;;;;0.66;46.99;95673.78;5107430;28;20178;-82
2022/03/11 10:46:01;;;;;;;9.30;6.00;;;;;;;0.16;46.48;95613.31;5102620;28;20162;-83
2022/03/11 10:48:43;;;;;;;10.73;5.73;;;;;;;0.65;45.63;95669.56;5100454;28;20192;-82
2022/03/11 10:51:32;;;;;;;11.97;5.67;;;;;;;0.82;46.64;95665.53;5102883;28;20196;-82
2022/03/11 10:53:59;;;;;;;14.30;6.77;;;;;;;0.28;47.87;95632.16;5105177;28;21069;-82
2022/03/11 10:56:33;;;;;;;13.90;7.80;;;;;;;0.40;48.82;95657.03;5103310;28;20261;-82
2022/03/11 10:58:59;;;;;;;11.63;7.70;;;;;;;0.85;48.36;95654.91;5102538;28;20650;-83
2022/03/11 11:01:44;;;;;;;11.60;6.30;;;;;;;0.83;47.16;95604.16;5103763;27;20627;-82
2022/03/11 11:04:15;;;;;;;24.43;12.50;;;;;;;1.32;46.16;95649.94;5102065;28;20209;-83
2022/03/11 11:06:41;;;;;;;12.20;7.13;;;;;;;1.16;45.18;95657.41;5107906;28;20208;-87
2022/03/11 11:09:10;;;;;;;11.43;6.43;;;;;;;0.96;46.00;95610.72;5108507;28;20177;-86
2022/03/11 11:11:36;;;;;;;11.50;5.80;;;;;;;1.14;45.51;95584.97;5114036;28;20196;-86
2022/03/11 11:14:05;;;;;;;9.50;5.67;;;;;;;1.65;45.16;95615.00;5113538;28;20181;-87
2022/03/11 11:16:33;;;;;;;13.23;7.87;;;;;;;1.91;45.41;95600.50;5101660;28;20176;-87
2022/03/11 11:18:59;;;;;;;11.53;5.70;;;;;;;2.10;42.76;95626.44;5098619;28;20173;-87
2022/03/11 11:21:26;;;;;;;8.97;5.60;;;;;;;2.20;42.65;95639.41;5102243;28;20177;-86